Time;durP1;ratioP1;P1;durP2;ratioP2;P2;SDS_P1;SDS_P2;PMS_P1;PMS_P2;Temp;Humidity;BMP_temperature;BMP_pressure;BME280_temperature;BME280_humidity;BME280_pressure;Samples;Min_cycle;Max_cycle;Signal;HPM_P1;HPM_P2
2023/09/30 00:02:18;;;;;;;14.52;4.18;;;15.10;99.90;;;;;;5063686;28;20036;-80
2023/09/30 00:04:44;;;;;;;15.55;4.05;;;15.00;99.90;;;;;;5059098;28;20256;-80
2023/09/30 00:07:09;;;;;;;18.13;4.25;;;15.00;99.90;;;;;;5056721;28;20044;-81
2023/09/30 00:09:38;;;;;;;19.30;4.03;;;15.00;99.90;;;;;;5061145;28;20456;-80
2023/09/30 00:12:04;;;;;;;15.07;3.65;;;15.00;99.90;;;;;;5060402;28;22198;-81
2023/09/30 00:14:32;;;;;;;15.63;4.10;;;14.90;99.90;;;;;;5056542;28;20031;-80
2023/09/30 00:16:59;;;;;;;15.00;4.35;;;14.90;99.90;;;;;;5063309;28;20024;-79
2023/09/30 00:19:26;;;;;;;25.80;5.57;;;14.80;99.90;;;;;;5058762;28;20028;-80
2023/09/30 00:21:51;;;;;;;19.08;4.32;;;14.80;99.90;;;;;;5062462;28;20012;-79
2023/09/30 00:24:17;;;;;;;17.15;4.70;;;14.80;99.90;;;;;;5059639;28;20028;-79
2023/09/30 00:26:43;;;;;;;22.15;4.63;;;14.80;99.90;;;;;;5059021;28;20029;-80
2023/09/30 00:29:10;;;;;;;22.33;5.65;;;14.70;99.90;;;;;;5060578;28;20779;-78
2023/09/30 00:31:40;;;;;;;16.35;4.35;;;14.70;99.90;;;;;;5057424;28;20266;-81
2023/09/30 00:34:06;;;;;;;17.15;5.03;;;14.60;99.90;;;;;;5063339;28;20516;-79
2023/09/30 00:36:32;;;;;;;20.30;4.55;;;14.60;99.90;;;;;;5062813;28;20063;-79
2023/09/30 00:38:57;;;;;;;21.25;5.15;;;14.60;99.90;;;;;;5059624;28;20086;-79
2023/09/30 00:41:23;;;;;;;12.95;4.18;;;14.60;99.90;;;;;;5055124;28;20031;-79
2023/09/30 00:43:49;;;;;;;14.50;3.90;;;14.50;99.90;;;;;;5055769;28;20024;-79
2023/09/30 00:46:28;;;;;;;18.90;5.32;;;14.50;99.90;;;;;;5064593;28;20017;-79
2023/09/30 00:48:55;;;;;;;23.10;4.90;;;14.50;99.90;;;;;;5058420;28;20016;-79
2023/09/30 00:51:22;;;;;;;23.88;4.68;;;14.50;99.90;;;;;;5054385;28;20045;-80
2023/09/30 00:53:48;;;;;;;20.67;5.30;;;14.40;99.90;;;;;;5059297;28;20036;-79
2023/09/30 00:56:14;;;;;;;22.25;5.03;;;14.40;99.90;;;;;;5060300;28;20048;-78
2023/09/30 00:58:42;;;;;;;21.88;5.68;;;14.30;99.90;;;;;;5062714;28;20051;-77
2023/09/30 01:01:09;;;;;;;20.23;4.40;;;14.30;99.90;;;;;;5062585;28;20017;-79
2023/09/30 01:03:35;;;;;;;19.73;5.32;;;14.30;99.90;;;;;;5061324;28;20522;-78
2023/09/30 01:06:01;;;;;;;17.10;4.30;;;14.30;99.90;;;;;;5056901;28;20017;-79
2023/09/30 01:08:27;;;;;;;25.60;5.97;;;14.30;99.90;;;;;;5058944;28;20635;-79
2023/09/30 01:10:54;;;;;;;22.90;5.82;;;14.30;99.90;;;;;;5058113;28;20017;-79
2023/09/30 01:13:19;;;;;;;24.35;5.93;;;14.30;99.90;;;;;;5060518;28;20031;-79
2023/09/30 01:15:47;;;;;;;18.67;5.25;;;14.30;99.90;;;;;;5061552;28;20020;-79
2023/09/30 01:18:13;;;;;;;23.15;5.85;;;14.30;99.90;;;;;;5060294;28;20492;-79
2023/09/30 01:20:38;;;;;;;27.75;6.32;;;14.30;99.90;;;;;;5056993;28;20352;-79
2023/09/30 01:23:04;;;;;;;21.90;5.25;;;14.20;99.90;;;;;;5060437;28;20135;-78
2023/09/30 01:25:33;;;;;;;21.50;5.45;;;14.20;99.90;;;;;;5063004;28;20017;-79
2023/09/30 01:28:00;;;;;;;22.05;5.32;;;14.20;99.90;;;;;;5056748;28;20048;-79
2023/09/30 01:30:25;;;;;;;23.65;5.55;;;14.20;99.90;;;;;;5060282;28;20082;-79
2023/09/30 01:32:51;;;;;;;32.97;6.38;;;14.20;99.90;;;;;;5061802;28;20416;-79
2023/09/30 01:35:17;;;;;;;23.17;5.82;;;14.20;99.90;;;;;;5061375;28;20020;-78
2023/09/30 01:37:43;;;;;;;28.23;5.57;;;14.20;99.90;;;;;;5061854;28;20483;-79
2023/09/30 01:40:11;;;;;;;22.55;5.55;;;14.10;99.90;;;;;;5063688;28;20020;-79
2023/09/30 01:42:37;;;;;;;29.48;6.30;;;14.10;99.90;;;;;;5064243;28;20028;-78
2023/09/30 01:45:04;;;;;;;23.50;5.75;;;14.10;99.90;;;;;;5059628;28;20020;-79
2023/09/30 01:47:29;;;;;;;34.65;6.15;;;14.10;99.90;;;;;;5059349;28;20040;-79
2023/09/30 01:49:55;;;;;;;27.88;5.18;;;14.00;99.90;;;;;;5059750;28;20436;-79
2023/09/30 01:52:21;;;;;;;28.33;6.10;;;14.10;99.90;;;;;;5056955;28;20070;-80
2023/09/30 01:54:47;;;;;;;23.30;5.53;;;14.10;99.90;;;;;;5055604;28;20445;-79
2023/09/30 01:57:13;;;;;;;28.48;6.85;;;14.00;99.90;;;;;;5056098;28;20021;-79
2023/09/30 01:59:39;;;;;;;32.38;6.10;;;14.00;99.90;;;;;;5060015;28;20031;-79
2023/09/30 02:02:04;;;;;;;34.45;5.57;;;14.00;99.90;;;;;;5057273;28;20103;-78
2023/09/30 02:04:30;;;;;;;19.42;5.15;;;14.00;99.90;;;;;;5054940;28;20444;-79
2023/09/30 02:06:56;;;;;;;28.15;4.97;;;14.00;99.90;;;;;;5063586;28;20067;-79
2023/09/30 02:09:22;;;;;;;16.75;4.18;;;14.00;99.90;;;;;;5061602;28;20047;-79
2023/09/30 02:11:47;;;;;;;19.13;4.75;;;14.00;99.90;;;;;;5060165;28;20368;-79
2023/09/30 02:14:13;;;;;;;18.08;4.63;;;14.00;99.90;;;;;;5057253;28;20032;-79
2023/09/30 02:16:39;;;;;;;31.25;5.93;;;13.90;99.90;;;;;;5060108;28;20016;-79
2023/09/30 02:19:06;;;;;;;30.48;5.03;;;13.90;99.90;;;;;;5060609;28;20136;-78
2023/09/30 02:21:32;;;;;;;23.13;4.70;;;13.90;99.90;;;;;;5063362;28;20469;-79
2023/09/30 02:23:58;;;;;;;23.13;4.80;;;13.90;99.90;;;;;;5062895;28;20116;-78
2023/09/30 02:26:25;;;;;;;23.60;5.25;;;13.90;99.90;;;;;;5060371;28;20104;-79
2023/09/30 02:28:52;;;;;;;19.67;4.88;;;13.80;99.90;;;;;;5056960;28;20052;-80
2023/09/30 02:31:17;;;;;;;20.90;4.25;;;13.80;99.90;;;;;;5058985;28;20081;-79
2023/09/30 02:33:43;;;;;;;15.93;4.07;;;13.80;99.90;;;;;;5059432;28;20123;-79
2023/09/30 02:36:09;;;;;;;23.50;4.50;;;13.80;99.90;;;;;;5060652;28;20013;-79
2023/09/30 02:38:38;;;;;;;25.27;4.13;;;13.80;99.90;;;;;;5059607;28;20051;-79
2023/09/30 02:41:05;;;;;;;24.13;4.80;;;13.80;99.90;;;;;;5059584;28;20342;-78
2023/09/30 02:43:33;;;;;;;25.10;4.13;;;13.80;99.90;;;;;;5058367;28;20030;-80
2023/09/30 02:45:59;;;;;;;24.63;4.45;;;13.80;99.90;;;;;;5060649;28;20030;-78
2023/09/30 02:48:24;;;;;;;20.20;3.92;;;13.80;99.90;;;;;;5059388;28;20107;-79
2023/09/30 02:50:50;;;;;;;19.35;4.70;;;13.80;99.90;;;;;;5056528;28;20052;-79
2023/09/30 02:53:16;;;;;;;28.63;4.75;;;13.90;99.90;;;;;;5057122;28;20056;-79
2023/09/30 02:55:42;;;;;;;23.83;4.82;;;13.90;99.90;;;;;;5058870;28;23422;-78
2023/09/30 02:58:08;;;;;;;24.20;5.10;;;13.90;99.90;;;;;;5054603;28;20032;-79
2023/09/30 03:00:35;;;;;;;26.55;5.93;;;13.80;99.90;;;;;;5058664;28;20457;-79
2023/09/30 03:03:02;;;;;;;40.83;6.88;;;13.80;99.90;;;;;;5055716;28;20040;-78
2023/09/30 03:05:30;;;;;;;36.92;5.60;;;13.80;99.90;;;;;;5057844;28;20481;-78
2023/09/30 03:07:55;;;;;;;19.52;4.00;;;13.80;99.90;;;;;;5059785;28;20024;-79
2023/09/30 03:10:23;;;;;;;24.42;4.35;;;13.90;99.90;;;;;;5060143;28;20102;-79
2023/09/30 03:12:51;;;;;;;22.95;4.40;;;13.80;99.90;;;;;;5054337;28;20551;-79
2023/09/30 03:15:18;;;;;;;19.90;4.90;;;13.80;99.90;;;;;;5059282;28;20099;-79
2023/09/30 03:17:44;;;;;;;24.10;5.63;;;13.80;99.90;;;;;;5059682;28;20170;-78
2023/09/30 03:20:14;;;;;;;24.60;4.53;;;13.80;99.90;;;;;;5059490;28;20469;-79
2023/09/30 03:23:04;;;;;;;20.38;4.68;;;13.80;99.90;;;;;;5063390;28;20021;-80
2023/09/30 03:25:30;;;;;;;42.28;7.40;;;13.80;99.90;;;;;;5050019;28;20028;-79
2023/09/30 03:27:56;;;;;;;22.85;5.53;;;13.80;99.90;;;;;;5055062;28;20119;-80
2023/09/30 03:30:25;;;;;;;31.90;4.93;;;13.80;99.90;;;;;;5056411;28;20034;-79
2023/09/30 03:32:51;;;;;;;35.15;5.20;;;13.80;99.90;;;;;;5057529;28;20438;-79
2023/09/30 03:35:26;;;;;;;29.20;4.75;;;13.80;99.90;;;;;;5056205;28;20131;-80
2023/09/30 03:37:51;;;;;;;37.30;7.60;;;13.80;99.90;;;;;;5050863;28;20377;-79
2023/09/30 03:40:27;;;;;;;24.73;5.35;;;13.80;99.90;;;;;;5058969;28;20031;-79
2023/09/30 03:42:56;;;;;;;16.60;4.68;;;13.80;99.90;;;;;;5059039;28;20515;-80
2023/09/30 03:45:21;;;;;;;27.88;4.70;;;13.70;99.90;;;;;;5065005;28;20028;-80
2023/09/30 03:47:51;;;;;;;23.27;6.03;;;13.70;99.90;;;;;;5058215;28;20028;-80
2023/09/30 03:50:23;;;;;;;21.02;4.53;;;13.80;99.90;;;;;;5055913;28;20051;-80
2023/09/30 03:52:52;;;;;;;21.05;4.85;;;13.80;99.90;;;;;;5062686;28;20036;-80
2023/09/30 03:55:17;;;;;;;23.13;4.15;;;13.80;99.90;;;;;;5061504;28;20021;-80
2023/09/30 03:57:51;;;;;;;28.48;4.95;;;13.80;99.90;;;;;;5064416;28;20514;-79
2023/09/30 04:00:19;;;;;;;20.88;4.28;;;13.70;99.90;;;;;;5060976;28;20100;-79
2023/09/30 04:02:57;;;;;;;21.92;4.18;;;13.70;99.90;;;;;;5061082;28;20063;-79
2023/09/30 04:05:31;;;;;;;17.83;4.20;;;13.70;99.90;;;;;;5060386;28;20028;-79
2023/09/30 04:07:57;;;;;;;28.05;5.40;;;13.70;99.90;;;;;;5059976;28;20040;-79
2023/09/30 04:10:23;;;;;;;21.15;4.25;;;13.60;99.90;;;;;;5062389;28;20028;-80
2023/09/30 04:12:58;;;;;;;22.85;4.45;;;13.60;99.90;;;;;;5062986;28;20119;-79
2023/09/30 04:15:24;;;;;;;30.02;5.05;;;13.60;99.90;;;;;;5058530;28;20028;-79
2023/09/30 04:17:51;;;;;;;26.40;5.07;;;13.60;99.90;;;;;;5055869;28;20032;-79
2023/09/30 04:20:24;;;;;;;21.35;4.65;;;13.50;99.90;;;;;;5064766;28;20028;-79
2023/09/30 04:22:57;;;;;;;20.90;4.10;;;13.50;99.90;;;;;;5062195;28;20024;-79
2023/09/30 04:25:24;;;;;;;19.42;3.85;;;13.50;99.90;;;;;;5065027;28;20051;-78
2023/09/30 04:27:50;;;;;;;24.90;4.80;;;13.50;99.90;;;;;;5062533;28;20059;-78
2023/09/30 04:30:19;;;;;;;23.70;4.55;;;13.50;99.90;;;;;;5061472;28;20028;-78
2023/09/30 04:32:48;;;;;;;25.15;4.30;;;13.60;99.90;;;;;;5058714;28;20032;-79
2023/09/30 04:35:14;;;;;;;17.50;3.67;;;13.50;99.90;;;;;;5061218;28;20081;-79
2023/09/30 04:37:40;;;;;;;23.52;4.32;;;13.60;99.90;;;;;;5061869;28;20457;-79
2023/09/30 04:40:19;;;;;;;25.55;4.28;;;13.60;99.90;;;;;;5060217;28;20027;-79
2023/09/30 04:42:46;;;;;;;25.27;4.68;;;13.60;99.90;;;;;;5057178;28;20111;-81
2023/09/30 04:45:13;;;;;;;28.70;4.32;;;13.60;99.90;;;;;;5059717;28;20107;-79
2023/09/30 04:47:39;;;;;;;20.23;4.68;;;13.60;99.90;;;;;;5064037;28;20043;-79
2023/09/30 04:50:08;;;;;;;30.20;5.10;;;13.60;99.90;;;;;;5057822;28;20018;-79
2023/09/30 04:52:40;;;;;;;23.60;4.22;;;13.70;99.90;;;;;;5060913;28;20036;-81
2023/09/30 04:55:07;;;;;;;19.85;4.18;;;13.70;99.90;;;;;;5060794;28;20016;-79
2023/09/30 04:57:36;;;;;;;23.95;3.95;;;13.70;99.90;;;;;;5062621;28;20031;-78
2023/09/30 05:00:04;;;;;;;17.95;3.33;;;13.70;99.90;;;;;;5059795;28;20110;-79
2023/09/30 05:02:36;;;;;;;23.73;3.92;;;13.70;99.90;;;;;;5058348;28;20059;-80
2023/09/30 05:05:02;;;;;;;28.60;4.15;;;13.70;99.90;;;;;;5062554;28;20016;-78
2023/09/30 05:07:28;;;;;;;21.85;4.03;;;13.60;99.90;;;;;;5061366;28;20492;-78
2023/09/30 05:09:54;;;;;;;28.15;4.40;;;13.60;99.90;;;;;;5062228;28;20012;-78
2023/09/30 05:12:21;;;;;;;25.75;4.00;;;13.60;99.90;;;;;;5057758;28;20039;-79
2023/09/30 05:14:48;;;;;;;31.45;5.30;;;13.60;99.90;;;;;;5060311;28;20378;-80
2023/09/30 05:17:13;;;;;;;19.13;4.13;;;13.60;99.90;;;;;;5062617;28;20038;-80
2023/09/30 05:19:39;;;;;;;16.40;3.75;;;13.60;99.90;;;;;;5055370;28;20446;-79
2023/09/30 05:22:05;;;;;;;24.45;4.93;;;13.60;99.90;;;;;;5057662;28;20149;-80
2023/09/30 05:24:31;;;;;;;18.98;4.20;;;13.60;99.90;;;;;;5059503;28;20025;-79
2023/09/30 05:26:56;;;;;;;20.65;4.63;;;13.50;99.90;;;;;;5061926;28;20036;-79
2023/09/30 05:29:22;;;;;;;22.20;4.70;;;13.50;99.90;;;;;;5061274;28;20047;-80
2023/09/30 05:31:49;;;;;;;29.40;4.25;;;13.50;99.90;;;;;;5059454;28;20680;-80
2023/09/30 05:34:14;;;;;;;19.83;3.55;;;13.50;99.90;;;;;;5062480;28;20032;-80
2023/09/30 05:36:43;;;;;;;25.15;4.32;;;13.50;99.90;;;;;;5061281;28;20082;-79
2023/09/30 05:39:10;;;;;;;29.60;4.70;;;13.50;99.90;;;;;;5059568;28;20020;-79
2023/09/30 05:41:38;;;;;;;16.23;4.03;;;13.50;99.90;;;;;;5061550;28;20032;-80
2023/09/30 05:44:04;;;;;;;15.60;3.78;;;13.50;99.90;;;;;;5058522;28;20135;-80
2023/09/30 05:46:31;;;;;;;12.18;3.33;;;13.50;99.90;;;;;;5057499;28;20025;-78
2023/09/30 05:48:56;;;;;;;15.63;2.97;;;13.50;99.90;;;;;;5058405;28;20792;-79
2023/09/30 05:51:22;;;;;;;14.18;3.58;;;13.50;99.90;;;;;;5058325;28;20016;-79
2023/09/30 05:53:50;;;;;;;9.68;2.95;;;13.50;99.90;;;;;;5059207;28;20627;-79
2023/09/30 05:56:18;;;;;;;26.83;4.18;;;13.50;99.90;;;;;;5061749;28;20016;-79
2023/09/30 05:58:44;;;;;;;12.43;3.05;;;13.50;99.90;;;;;;5058200;28;20016;-79
2023/09/30 06:01:15;;;;;;;21.67;4.38;;;13.50;99.90;;;;;;5059950;28;20047;-78
2023/09/30 06:03:46;;;;;;;24.25;4.20;;;13.40;99.90;;;;;;5059064;28;20016;-79
2023/09/30 06:06:15;;;;;;;19.65;3.55;;;13.40;99.90;;;;;;5057396;28;20400;-80
2023/09/30 06:08:45;;;;;;;24.52;4.00;;;13.40;99.90;;;;;;5064918;28;20506;-80
2023/09/30 06:11:19;;;;;;;21.55;4.43;;;13.40;99.90;;;;;;5064880;28;20021;-80
2023/09/30 06:13:47;;;;;;;23.40;4.22;;;13.40;99.90;;;;;;5064565;28;20109;-79
2023/09/30 06:16:13;;;;;;;18.52;3.75;;;13.40;99.90;;;;;;5060742;28;20062;-79
2023/09/30 06:18:39;;;;;;;25.27;4.07;;;13.50;99.90;;;;;;5064136;28;20013;-79
2023/09/30 06:21:04;;;;;;;27.90;4.93;;;13.50;99.90;;;;;;5058791;28;20020;-79
2023/09/30 06:23:30;;;;;;;16.33;3.00;;;13.50;99.90;;;;;;5064693;28;20024;-79
2023/09/30 06:25:57;;;;;;;10.90;3.15;;;13.50;99.90;;;;;;5066128;28;20016;-79
2023/09/30 06:28:25;;;;;;;11.30;2.88;;;13.50;99.90;;;;;;5062651;28;20032;-79
2023/09/30 06:30:54;;;;;;;15.27;3.47;;;13.50;99.90;;;;;;5063919;28;20017;-79
2023/09/30 06:33:21;;;;;;;20.55;3.97;;;13.50;99.90;;;;;;5063546;28;20078;-79
2023/09/30 06:35:52;;;;;;;22.25;4.50;;;13.60;99.90;;;;;;5059688;28;20036;-79
2023/09/30 06:38:21;;;;;;;15.63;4.38;;;13.70;99.90;;;;;;5065399;28;20024;-79
2023/09/30 06:40:47;;;;;;;18.90;4.70;;;13.70;99.90;;;;;;5065871;28;20024;-79
2023/09/30 06:43:16;;;;;;;18.00;3.75;;;13.70;99.90;;;;;;5062992;28;20103;-79
2023/09/30 06:45:43;;;;;;;14.02;3.45;;;13.80;99.90;;;;;;5063622;28;20024;-79
2023/09/30 06:48:15;;;;;;;17.88;3.22;;;13.70;99.90;;;;;;5061017;28;20388;-79
2023/09/30 06:50:45;;;;;;;18.55;3.78;;;13.80;99.90;;;;;;5056427;28;20036;-79
2023/09/30 06:53:12;;;;;;;10.65;2.85;;;13.80;99.90;;;;;;5058254;28;20037;-79
2023/09/30 06:55:39;;;;;;;15.18;3.15;;;13.80;99.90;;;;;;5062980;28;20027;-79
2023/09/30 06:58:07;;;;;;;20.48;3.67;;;13.80;99.90;;;;;;5063892;28;20023;-80
2023/09/30 07:00:34;;;;;;;21.95;3.83;;;13.80;99.90;;;;;;5062177;28;20105;-79
2023/09/30 07:03:00;;;;;;;18.83;4.45;;;13.90;99.90;;;;;;5058789;28;20025;-79
2023/09/30 07:05:26;;;;;;;23.00;3.80;;;13.90;99.90;;;;;;5059017;28;20551;-79
2023/09/30 07:07:51;;;;;;;19.35;3.75;;;13.90;99.90;;;;;;5062915;28;20021;-80
2023/09/30 07:10:17;;;;;;;15.43;4.32;;;13.90;99.90;;;;;;5064343;28;20032;-79
2023/09/30 07:12:43;;;;;;;15.95;3.80;;;13.90;99.90;;;;;;5059940;28;20051;-79
2023/09/30 07:15:09;;;;;;;21.88;3.67;;;13.90;99.90;;;;;;5062820;28;20066;-79
2023/09/30 07:17:35;;;;;;;18.10;3.72;;;14.00;99.90;;;;;;5061066;28;20465;-79
2023/09/30 07:20:05;;;;;;;10.95;3.30;;;14.00;99.90;;;;;;5068733;28;20120;-80
2023/09/30 07:22:31;;;;;;;15.63;3.45;;;14.00;99.90;;;;;;5066986;28;20017;-79
2023/09/30 07:25:00;;;;;;;10.20;2.78;;;14.00;99.90;;;;;;5065232;28;20031;-81
2023/09/30 07:27:26;;;;;;;18.10;3.88;;;14.00;99.90;;;;;;5061818;28;20468;-79
2023/09/30 07:29:52;;;;;;;14.85;3.00;;;14.00;99.90;;;;;;5060023;28;20063;-79
2023/09/30 07:32:18;;;;;;;19.35;3.78;;;14.10;99.90;;;;;;5057801;28;20053;-78
2023/09/30 07:34:44;;;;;;;25.17;5.55;;;14.10;99.90;;;;;;5063187;28;20062;-79
2023/09/30 07:37:10;;;;;;;19.17;3.85;;;14.20;99.90;;;;;;5062788;28;20025;-78
2023/09/30 07:39:35;;;;;;;14.45;3.25;;;14.20;99.90;;;;;;5072521;28;20031;-80
2023/09/30 07:42:04;;;;;;;14.40;3.67;;;14.20;99.90;;;;;;5053810;28;20036;-80
2023/09/30 07:44:30;;;;;;;20.88;4.20;;;14.30;99.90;;;;;;5062067;28;20071;-80
2023/09/30 07:46:56;;;;;;;18.50;3.67;;;14.30;99.90;;;;;;5081183;28;20020;-78
2023/09/30 07:49:23;;;;;;;13.77;3.45;;;14.40;99.90;;;;;;5065697;28;20505;-79
2023/09/30 07:51:49;;;;;;;18.20;3.95;;;14.40;99.90;;;;;;5065800;28;20060;-79
2023/09/30 07:54:15;;;;;;;17.65;3.50;;;14.50;99.90;;;;;;5060424;28;20060;-79
2023/09/30 07:56:44;;;;;;;16.60;3.10;;;14.50;99.90;;;;;;5056384;28;20021;-78
2023/09/30 07:59:09;;;;;;;17.75;3.47;;;14.60;99.90;;;;;;5062955;28;20025;-79
2023/09/30 08:01:35;;;;;;;15.57;2.88;;;14.70;99.90;;;;;;5062650;28;20036;-79
2023/09/30 08:04:01;;;;;;;18.10;3.25;;;14.70;99.90;;;;;;5059001;28;20029;-80
2023/09/30 08:06:26;;;;;;;23.75;3.83;;;14.80;99.90;;;;;;5063436;28;20028;-79
2023/09/30 08:08:52;;;;;;;18.20;4.07;;;14.80;99.90;;;;;;5063696;28;20039;-79
2023/09/30 08:11:20;;;;;;;15.70;2.92;;;14.90;99.90;;;;;;5067804;28;20036;-79
2023/09/30 08:13:46;;;;;;;18.48;3.60;;;14.90;99.90;;;;;;5065450;28;20300;-78
2023/09/30 08:16:12;;;;;;;21.83;4.47;;;15.00;99.90;;;;;;5055970;28;20036;-79
2023/09/30 08:18:38;;;;;;;14.65;2.85;;;15.00;99.90;;;;;;5061585;28;20033;-80
2023/09/30 08:21:04;;;;;;;19.02;4.10;;;15.00;99.90;;;;;;5062083;28;20029;-78
2023/09/30 08:23:31;;;;;;;19.00;3.35;;;15.00;99.90;;;;;;5065960;28;20483;-79
2023/09/30 08:25:59;;;;;;;21.70;4.25;;;15.10;99.90;;;;;;5059066;28;20028;-79
2023/09/30 08:28:25;;;;;;;18.13;3.35;;;15.10;99.90;;;;;;5065076;28;20048;-79
2023/09/30 08:30:54;;;;;;;25.30;3.83;;;15.20;99.90;;;;;;5065398;28;20453;-80
2023/09/30 08:33:20;;;;;;;16.45;3.13;;;15.10;99.90;;;;;;5063543;28;20059;-79
2023/09/30 08:35:48;;;;;;;23.17;3.60;;;15.20;99.90;;;;;;5065382;28;20361;-80
2023/09/30 08:38:14;;;;;;;16.70;2.97;;;15.30;99.90;;;;;;5055956;28;20025;-79
2023/09/30 08:40:40;;;;;;;19.80;2.92;;;15.30;99.90;;;;;;5061852;28;20131;-79
2023/09/30 08:43:15;;;;;;;13.45;3.20;;;15.40;99.90;;;;;;5060882;28;20056;-79
2023/09/30 08:45:44;;;;;;;20.90;3.42;;;15.40;99.90;;;;;;5056501;28;20024;-78
2023/09/30 08:48:10;;;;;;;10.77;2.75;;;15.40;99.90;;;;;;5059047;28;20044;-79
2023/09/30 08:50:42;;;;;;;20.90;3.25;;;15.50;99.90;;;;;;5062029;28;20191;-79
2023/09/30 08:53:10;;;;;;;25.30;5.10;;;15.50;99.90;;;;;;5062793;28;20135;-79
2023/09/30 08:55:39;;;;;;;13.20;3.47;;;15.60;99.90;;;;;;5064678;28;20029;-79
2023/09/30 08:58:05;;;;;;;21.92;5.10;;;15.70;99.90;;;;;;5063316;28;20044;-79
2023/09/30 09:00:31;;;;;;;15.70;3.08;;;15.70;99.90;;;;;;5065152;28;20024;-79
2023/09/30 09:02:56;;;;;;;10.80;3.00;;;15.70;99.90;;;;;;5063447;28;20473;-79
2023/09/30 09:05:22;;;;;;;16.90;3.45;;;15.70;99.90;;;;;;5064138;28;20474;-79
2023/09/30 09:07:47;;;;;;;14.38;3.17;;;15.80;99.90;;;;;;5062411;28;20035;-80
2023/09/30 09:10:13;;;;;;;14.50;3.28;;;15.80;99.90;;;;;;5066181;28;20033;-78
2023/09/30 09:12:40;;;;;;;15.10;3.25;;;15.80;99.90;;;;;;5066320;28;20036;-80
2023/09/30 09:15:07;;;;;;;19.77;3.50;;;15.90;99.90;;;;;;5065273;28;20033;-79
2023/09/30 09:17:44;;;;;;;17.45;3.13;;;15.90;99.90;;;;;;5064596;28;20507;-77
2023/09/30 09:20:12;;;;;;;14.38;3.05;;;15.90;99.90;;;;;;5061936;28;20036;-79
2023/09/30 09:22:42;;;;;;;14.55;2.78;;;15.90;99.90;;;;;;5059544;28;20480;-78
2023/09/30 09:25:08;;;;;;;14.63;3.10;;;16.00;99.90;;;;;;5060115;28;20036;-79
2023/09/30 09:27:37;;;;;;;15.70;3.22;;;16.00;99.90;;;;;;5055503;28;20046;-79
2023/09/30 09:30:15;;;;;;;14.90;3.35;;;16.00;99.90;;;;;;5060880;28;20035;-79
2023/09/30 09:33:03;;;;;;;11.85;3.70;;;16.00;99.90;;;;;;5062489;28;20687;-79
2023/09/30 09:35:30;;;;;;;21.88;3.72;;;16.00;99.90;;;;;;5059887;28;20028;-78
2023/09/30 09:38:02;;;;;;;16.98;2.58;;;16.00;99.90;;;;;;5058697;28;20036;-79
2023/09/30 09:40:29;;;;;;;17.60;3.78;;;16.10;99.90;;;;;;5061162;28;20493;-80
2023/09/30 09:42:57;;;;;;;18.55;3.78;;;16.10;99.90;;;;;;5065634;28;20028;-79
2023/09/30 09:45:24;;;;;;;10.63;2.83;;;16.20;99.90;;;;;;5065524;28;20111;-79
2023/09/30 09:47:51;;;;;;;11.75;3.00;;;16.30;99.90;;;;;;5064153;28;20033;-79
2023/09/30 09:50:18;;;;;;;17.27;3.05;;;16.30;99.90;;;;;;5065837;28;20033;-79
2023/09/30 09:52:46;;;;;;;14.60;3.05;;;16.30;99.90;;;;;;5065559;28;20028;-79
2023/09/30 09:55:15;;;;;;;16.80;3.45;;;16.40;99.90;;;;;;5063693;28;20037;-79
2023/09/30 09:57:41;;;;;;;12.63;2.88;;;16.50;99.90;;;;;;5061224;28;20029;-79
2023/09/30 10:00:13;;;;;;;15.85;3.35;;;16.50;99.90;;;;;;5065455;28;20033;-79
2023/09/30 10:02:40;;;;;;;12.30;3.22;;;16.60;99.90;;;;;;5060845;28;20486;-78
2023/09/30 10:05:07;;;;;;;14.40;2.83;;;16.60;99.90;;;;;;5060998;28;20473;-78
2023/09/30 10:08:10;;;;;;;15.00;3.03;;;16.60;99.90;;;;;;5062998;28;20044;-79
2023/09/30 10:10:37;;;;;;;12.68;2.70;;;16.60;99.90;;;;;;5059102;28;22189;-79
2023/09/30 10:13:03;;;;;;;14.82;3.25;;;16.60;99.90;;;;;;5061244;28;20075;-80
2023/09/30 10:15:30;;;;;;;13.98;3.05;;;16.60;99.90;;;;;;5064762;28;20078;-79
2023/09/30 10:17:58;;;;;;;7.55;2.20;;;16.60;99.90;;;;;;5061228;28;20112;-79
2023/09/30 10:20:28;;;;;;;11.60;3.03;;;16.60;99.90;;;;;;5063187;28;20366;-79
2023/09/30 10:23:19;;;;;;;10.70;2.67;;;16.60;99.90;;;;;;5060737;28;20028;-80
2023/09/30 10:25:47;;;;;;;13.45;2.45;;;16.80;99.90;;;;;;5060810;28;20483;-80
2023/09/30 10:28:37;;;;;;;16.45;2.42;;;16.90;99.90;;;;;;5055931;28;20049;-80
2023/09/30 10:31:25;;;;;;;7.43;2.17;;;16.90;99.90;;;;;;5061652;28;20028;-79
2023/09/30 10:34:02;;;;;;;13.13;2.63;;;16.90;99.90;;;;;;5055089;28;20485;-81
2023/09/30 10:36:29;;;;;;;16.02;2.38;;;17.00;99.90;;;;;;5060308;28;20020;-79
2023/09/30 10:38:55;;;;;;;17.17;2.47;;;17.10;99.90;;;;;;5063832;28;20078;-80
2023/09/30 10:41:40;;;;;;;12.43;2.80;;;17.20;99.90;;;;;;5060231;28;20021;-80
2023/09/30 10:44:27;;;;;;;9.95;2.90;;;17.30;99.90;;;;;;5063071;28;20029;-82
2023/09/30 10:46:54;;;;;;;15.55;2.90;;;17.30;99.90;;;;;;5059719;28;20036;-80
2023/09/30 10:49:23;;;;;;;8.13;2.10;;;17.30;99.90;;;;;;5063178;28;20021;-78
2023/09/30 10:52:02;;;;;;;10.25;2.63;;;17.30;99.90;;;;;;5063974;28;20108;-80
2023/09/30 10:54:33;;;;;;;12.55;2.88;;;17.40;99.90;;;;;;5065499;28;20435;-79
2023/09/30 10:57:00;;;;;;;11.05;2.72;;;17.40;99.90;;;;;;5065108;28;20110;-80
2023/09/30 10:59:30;;;;;;;12.15;2.65;;;17.40;99.90;;;;;;5066654;28;20473;-80
2023/09/30 11:01:56;;;;;;;11.02;2.60;;;17.40;99.90;;;;;;5067524;28;20385;-80
2023/09/30 11:04:21;;;;;;;14.30;2.58;;;17.40;99.90;;;;;;5066160;28;20033;-80
2023/09/30 11:06:48;;;;;;;17.00;2.40;;;17.40;99.90;;;;;;5067198;28;20108;-80
2023/09/30 11:09:21;;;;;;;10.68;2.17;;;17.50;99.90;;;;;;5070420;28;20056;-80
2023/09/30 11:11:53;;;;;;;13.98;2.92;;;17.50;99.90;;;;;;5056805;28;20127;-81
2023/09/30 11:14:30;;;;;;;11.18;2.97;;;17.50;99.90;;;;;;5064429;28;20068;-79
2023/09/30 11:16:58;;;;;;;13.73;2.60;;;17.60;99.90;;;;;;5065091;28;20025;-80
2023/09/30 11:19:24;;;;;;;7.53;1.70;;;17.60;99.90;;;;;;5063453;28;20024;-80
2023/09/30 11:22:00;;;;;;;10.85;2.03;;;17.60;99.90;;;;;;5063683;28;20012;-80
2023/09/30 11:24:28;;;;;;;17.70;3.10;;;17.60;99.90;;;;;;5067003;28;20103;-80
2023/09/30 11:26:55;;;;;;;12.18;3.05;;;17.60;99.90;;;;;;5064964;28;20060;-80
2023/09/30 11:29:22;;;;;;;14.25;2.45;;;17.70;99.90;;;;;;5058080;28;20048;-80
2023/09/30 11:31:50;;;;;;;8.68;2.90;;;17.70;99.90;;;;;;5067434;28;20127;-81
2023/09/30 11:34:18;;;;;;;16.02;2.33;;;17.80;99.90;;;;;;5061932;28;20051;-80
2023/09/30 11:36:52;;;;;;;10.75;2.38;;;17.80;99.90;;;;;;5058957;28;20031;-81
2023/09/30 11:39:29;;;;;;;6.88;2.28;;;17.90;99.90;;;;;;5064656;28;20024;-81
2023/09/30 11:41:56;;;;;;;14.40;2.70;;;17.90;99.90;;;;;;5058104;28;20067;-80
2023/09/30 11:44:23;;;;;;;9.88;2.55;;;17.90;99.90;;;;;;5059592;28;20488;-81
2023/09/30 11:47:11;;;;;;;7.88;1.90;;;17.90;99.90;;;;;;5065045;28;20033;-80
2023/09/30 11:49:44;;;;;;;13.82;2.45;;;18.00;99.90;;;;;;5059984;28;20017;-80
2023/09/30 11:52:11;;;;;;;10.80;2.00;;;18.10;99.90;;;;;;5063864;28;20043;-80
2023/09/30 11:54:41;;;;;;;9.45;1.90;;;18.10;99.90;;;;;;5062808;28;20040;-81
2023/09/30 11:57:10;;;;;;;11.95;2.63;;;18.10;99.90;;;;;;5063197;28;20111;-80
2023/09/30 11:59:37;;;;;;;10.85;2.35;;;18.20;99.90;;;;;;5064268;28;20027;-80
2023/09/30 12:02:05;;;;;;;11.00;2.70;;;18.30;99.90;;;;;;5061164;28;20044;-80
2023/09/30 12:04:31;;;;;;;16.77;2.45;;;18.30;99.90;;;;;;5058267;28;20032;-80
2023/09/30 12:07:00;;;;;;;14.52;2.97;;;18.40;99.90;;;;;;5062366;28;20036;-79
2023/09/30 12:09:27;;;;;;;9.57;2.42;;;18.40;99.90;;;;;;5057246;28;20028;-80
2023/09/30 12:11:54;;;;;;;8.27;2.28;;;18.50;99.90;;;;;;5062522;28;20119;-79
2023/09/30 12:14:23;;;;;;;12.80;2.47;;;18.50;99.90;;;;;;5061851;28;20045;-80
2023/09/30 12:16:50;;;;;;;8.15;1.77;;;18.50;99.90;;;;;;5057906;28;20029;-80
2023/09/30 12:19:16;;;;;;;11.48;2.38;;;18.60;99.90;;;;;;5063174;28;20029;-81
2023/09/30 12:21:43;;;;;;;7.32;2.17;;;18.60;99.90;;;;;;5053405;28;20041;-78
2023/09/30 12:24:09;;;;;;;16.63;3.67;;;18.50;99.90;;;;;;5062986;28;20587;-78
2023/09/30 12:26:38;;;;;;;9.02;1.80;;;18.60;99.90;;;;;;5060764;28;20028;-77
2023/09/30 12:29:05;;;;;;;13.80;2.75;;;18.70;99.90;;;;;;5060979;28;20415;-79
2023/09/30 12:31:33;;;;;;;12.88;2.55;;;18.80;99.90;;;;;;5064111;28;20033;-78
2023/09/30 12:33:59;;;;;;;7.20;2.03;;;18.90;99.90;;;;;;5063350;28;20474;-79
2023/09/30 12:36:25;;;;;;;10.43;2.15;;;18.70;99.90;;;;;;5063334;28;20028;-78
2023/09/30 12:38:51;;;;;;;7.22;1.90;;;18.70;99.90;;;;;;5064497;28;20151;-78
2023/09/30 12:41:19;;;;;;;8.68;2.13;;;18.70;99.90;;;;;;5063034;28;20381;-78
2023/09/30 12:43:45;;;;;;;8.23;1.73;;;18.70;99.90;;;;;;5060637;28;20187;-78